createdAt,value
2019-01-09T00:00:49.872Z,4.01
2019-01-09T00:03:18.264Z,3.98
2019-01-09T00:05:46.716Z,3.91
2019-01-09T00:08:15.189Z,3.89
2019-01-09T00:10:43.858Z,3.84
2019-01-09T00:13:12.514Z,3.85
2019-01-09T00:15:40.971Z,3.90
2019-01-09T00:18:09.876Z,3.93
2019-01-09T00:20:38.278Z,4.01
2019-01-09T00:23:06.816Z,4.03
2019-01-09T00:25:35.195Z,4.07
2019-01-09T00:28:03.670Z,4.06
2019-01-09T00:30:32.409Z,4.02
2019-01-09T00:33:00.779Z,4.06
2019-01-09T00:35:36.971Z,4.12
2019-01-09T00:37:59.673Z,4.15
2019-01-09T00:40:28.119Z,4.17
2019-01-09T00:42:56.584Z,4.19
2019-01-09T00:45:25.332Z,4.23
2019-01-09T00:47:53.852Z,4.22
2019-01-09T00:50:22.322Z,4.21
2019-01-09T00:52:50.711Z,4.17
2019-01-09T00:55:19.460Z,4.14
2019-01-09T00:57:47.929Z,4.05
2019-01-09T01:00:19.418Z,3.82
2019-01-09T01:03:13.341Z,3.70
2019-01-09T01:06:05.813Z,3.66
2019-01-09T01:08:55.123Z,3.66
2019-01-09T01:11:41.321Z,3.62
2019-01-09T01:14:30.895Z,3.68
2019-01-09T01:17:23.394Z,3.70
2019-01-09T01:20:20.852Z,3.68
2019-01-09T01:23:17.610Z,3.75
2019-01-09T01:25:54.821Z,3.69
2019-01-09T01:28:31.736Z,3.67
2019-01-09T01:31:28.787Z,3.74
2019-01-09T01:34:09.183Z,3.68
2019-01-09T01:36:52.822Z,3.47
2019-01-09T01:39:39.424Z,3.21
2019-01-09T01:42:28.268Z,2.88
2019-01-09T01:45:19.003Z,2.85
2019-01-09T01:47:59.624Z,2.77
2019-01-09T01:50:33.930Z,2.85
2019-01-09T01:53:14.738Z,2.85
2019-01-09T01:56:10.430Z,2.86
2019-01-09T01:58:53.630Z,2.88
2019-01-09T02:01:40.249Z,2.87
2019-01-09T02:04:20.780Z,2.82
2019-01-09T02:06:52.168Z,2.86
2019-01-09T02:09:32.320Z,2.85
2019-01-09T02:12:21.314Z,2.89
2019-01-09T02:15:15.497Z,2.98
2019-01-09T02:17:46.946Z,2.96
2019-01-09T02:20:24.321Z,2.99
2019-01-09T02:23:01.584Z,3.01
2019-01-09T02:25:41.729Z,3.01
2019-01-09T02:28:21.942Z,3.06
2019-01-09T02:30:53.398Z,3.06
2019-01-09T02:33:21.783Z,2.98
2019-01-09T02:35:50.191Z,2.94
2019-01-09T02:38:18.585Z,2.93
2019-01-09T02:40:46.970Z,2.96
2019-01-09T02:43:15.697Z,2.99
2019-01-09T02:45:44.385Z,2.98
2019-01-09T02:48:12.786Z,2.98
2019-01-09T02:50:41.450Z,3.02
2019-01-09T02:53:10.080Z,2.99
2019-01-09T02:55:38.816Z,2.96
2019-01-09T02:58:07.268Z,2.95
2019-01-09T03:00:35.659Z,2.95
2019-01-09T03:03:04.375Z,2.96
2019-01-09T03:05:32.762Z,2.94
2019-01-09T03:08:01.170Z,2.96
2019-01-09T03:10:29.912Z,2.89
2019-01-09T03:12:58.303Z,2.89
2019-01-09T03:15:26.987Z,2.82
2019-01-09T03:17:55.434Z,2.86
2019-01-09T03:20:23.820Z,2.86
2019-01-09T03:22:52.466Z,2.88
2019-01-09T03:25:21.103Z,2.85
2019-01-09T03:27:49.497Z,2.92
2019-01-09T03:30:18.302Z,2.89
2019-01-09T03:32:46.703Z,2.97
2019-01-09T03:35:15.107Z,2.97
2019-01-09T03:37:43.826Z,2.94
2019-01-09T03:40:12.284Z,2.88
2019-01-09T03:42:40.984Z,2.79
2019-01-09T03:45:09.772Z,2.78
2019-01-09T03:47:38.456Z,2.58
2019-01-09T03:50:07.657Z,2.34
2019-01-09T03:52:36.047Z,2.29
2019-01-09T03:55:05.493Z,2.24
2019-01-09T03:57:34.131Z,2.24
2019-01-09T04:00:02.917Z,2.14
2019-01-09T04:02:31.308Z,2.15
2019-01-09T04:04:59.935Z,2.15
2019-01-09T04:07:28.576Z,2.18
2019-01-09T04:09:57.242Z,2.23
2019-01-09T04:12:25.648Z,2.25
2019-01-09T04:14:54.411Z,2.31
2019-01-09T04:17:22.814Z,2.34
2019-01-09T04:19:51.579Z,2.38
2019-01-09T04:22:20.263Z,2.38
2019-01-09T04:24:48.664Z,2.36
2019-01-09T04:27:17.327Z,2.38
2019-01-09T04:29:45.727Z,2.39
2019-01-09T04:32:14.110Z,2.42
2019-01-09T04:34:42.571Z,2.44
2019-01-09T04:37:10.988Z,2.49
2019-01-09T04:39:39.369Z,2.47
2019-01-09T04:42:07.772Z,2.44
2019-01-09T04:44:36.178Z,2.42
2019-01-09T04:47:04.557Z,2.51
2019-01-09T04:49:32.957Z,2.56
2019-01-09T04:52:01.351Z,2.54
2019-01-09T04:54:29.767Z,2.54
2019-01-09T04:56:58.149Z,2.55
2019-01-09T04:59:26.870Z,2.55
2019-01-09T05:01:55.560Z,2.56
2019-01-09T05:04:23.951Z,2.58
2019-01-09T05:07:00.488Z,2.62
2019-01-09T05:09:22.735Z,2.62
2019-01-09T05:11:51.438Z,2.62
2019-01-09T05:14:19.837Z,2.59
2019-01-09T05:16:48.503Z,2.62
2019-01-09T05:19:16.893Z,2.61
2019-01-09T05:21:45.281Z,2.62
2019-01-09T05:24:13.681Z,2.61
2019-01-09T05:26:42.416Z,2.57
2019-01-09T05:29:10.800Z,2.56
2019-01-09T05:31:39.197Z,2.52
2019-01-09T05:34:07.589Z,2.55
2019-01-09T05:36:35.969Z,2.57
2019-01-09T05:39:44.539Z,2.59
2019-01-09T05:42:13.172Z,2.59
2019-01-09T05:44:41.594Z,2.63
2019-01-09T05:47:09.991Z,2.62
2019-01-09T05:49:38.383Z,2.67
2019-01-09T05:52:06.792Z,2.65
2019-01-09T05:54:35.194Z,2.66
2019-01-09T05:57:03.837Z,2.74
2019-01-09T05:59:32.570Z,2.73
2019-01-09T06:02:01.237Z,2.69
2019-01-09T06:04:29.668Z,2.71
2019-01-09T06:06:58.300Z,2.71
2019-01-09T06:09:26.691Z,2.64
2019-01-09T06:11:55.341Z,2.60
2019-01-09T06:14:23.745Z,2.52
2019-01-09T06:16:52.151Z,2.22
2019-01-09T06:19:20.552Z,2.12
2019-01-09T06:21:49.225Z,1.84
2019-01-09T06:24:17.850Z,1.78
2019-01-09T06:26:46.246Z,1.69
2019-01-09T06:29:14.918Z,1.69
2019-01-09T06:31:43.555Z,1.73
2019-01-09T06:34:11.966Z,1.75
2019-01-09T06:36:40.382Z,1.73
2019-01-09T06:39:09.006Z,1.55
2019-01-09T06:41:37.691Z,1.27
2019-01-09T06:44:06.314Z,1.16
2019-01-09T06:46:34.715Z,1.06
2019-01-09T06:49:03.102Z,1.04
2019-01-09T06:51:31.488Z,0.96
2019-01-09T06:54:00.169Z,0.89
2019-01-09T06:56:28.533Z,0.84
2019-01-09T06:58:57.171Z,0.86
2019-01-09T07:01:25.554Z,0.91
2019-01-09T07:03:54.183Z,0.96
2019-01-09T07:06:22.855Z,0.99
2019-01-09T07:08:51.546Z,1.08
2019-01-09T07:11:20.228Z,1.15
2019-01-09T07:13:48.691Z,1.22
2019-01-09T07:19:11.383Z,1.24
2019-01-09T07:21:45.505Z,1.32
2019-01-09T07:24:09.915Z,1.26
2019-01-09T07:26:38.301Z,1.25
2019-01-09T07:29:06.936Z,1.30
2019-01-09T07:31:35.335Z,1.30
2019-01-09T07:34:03.789Z,1.31
2019-01-09T07:36:32.172Z,1.35
2019-01-09T07:39:00.578Z,1.34
2019-01-09T07:41:28.976Z,1.38
2019-01-09T07:43:57.372Z,1.43
2019-01-09T07:46:26.029Z,1.45
2019-01-09T07:48:54.900Z,1.46
2019-01-09T07:51:23.303Z,1.49
2019-01-09T07:53:51.705Z,1.55
2019-01-09T07:56:20.093Z,1.59
2019-01-09T07:58:48.476Z,1.62
2019-01-09T08:01:16.880Z,1.69
2019-01-09T08:03:45.278Z,1.71
2019-01-09T08:06:13.674Z,1.76
2019-01-09T08:08:42.069Z,1.77
2019-01-09T08:11:10.464Z,1.79
2019-01-09T08:13:38.873Z,1.81
2019-01-09T08:16:07.513Z,1.83
2019-01-09T08:18:36.157Z,1.88
2019-01-09T08:21:05.475Z,1.87
2019-01-09T08:23:35.020Z,1.86
2019-01-09T08:26:03.644Z,1.81
2019-01-09T08:28:32.297Z,1.83
2019-01-09T08:31:00.694Z,1.86
2019-01-09T08:33:29.344Z,1.83
2019-01-09T08:35:57.970Z,1.82
2019-01-09T08:38:26.368Z,1.82
2019-01-09T08:40:54.951Z,1.80
2019-01-09T08:43:23.586Z,1.70
2019-01-09T08:45:52.218Z,1.65
2019-01-09T08:48:20.620Z,1.64
2019-01-09T08:50:49.260Z,1.57
2019-01-09T08:55:53.378Z,1.60
2019-01-09T08:58:21.759Z,1.59
2019-01-09T09:00:50.211Z,1.65
2019-01-09T09:03:18.550Z,1.65
2019-01-09T09:05:47.225Z,1.61
2019-01-09T09:08:55.775Z,1.65
2019-01-09T09:11:24.153Z,1.64
2019-01-09T09:13:52.807Z,1.71
2019-01-09T09:16:21.440Z,1.74
2019-01-09T09:18:49.828Z,1.85
2019-01-09T09:23:52.137Z,1.98
2019-01-09T09:26:20.531Z,2.02
2019-01-09T09:28:48.946Z,2.06
2019-01-09T09:31:17.402Z,2.17
2019-01-09T09:33:45.803Z,2.13
2019-01-09T09:36:14.190Z,2.18
2019-01-09T09:38:42.578Z,2.29
2019-01-09T09:41:10.974Z,2.26
2019-01-09T09:43:39.427Z,2.31
2019-01-09T09:46:07.820Z,2.27
2019-01-09T09:48:36.218Z,2.27
2019-01-09T09:51:04.600Z,2.36
2019-01-09T09:53:33.282Z,2.40
2019-01-09T09:56:01.669Z,2.50
2019-01-09T09:58:30.053Z,2.51
2019-01-09T10:00:58.446Z,2.49
2019-01-09T10:03:26.832Z,2.52
2019-01-09T10:05:55.234Z,2.59
2019-01-09T10:08:29.337Z,2.64
2019-01-09T10:10:53.732Z,2.59
2019-01-09T10:13:22.363Z,2.82
2019-01-09T10:15:51.033Z,2.84
2019-01-09T10:18:19.715Z,2.79
2019-01-09T10:20:48.100Z,2.74
2019-01-09T10:23:16.787Z,2.74
2019-01-09T10:25:45.177Z,2.72
2019-01-09T10:28:13.579Z,2.80
2019-01-09T10:30:42.230Z,2.69
2019-01-09T10:33:10.608Z,2.57
2019-01-09T10:35:39.008Z,2.55
2019-01-09T10:38:07.668Z,2.60
2019-01-09T10:40:36.548Z,2.65
2019-01-09T10:43:05.002Z,2.56
2019-01-09T10:45:33.388Z,2.46
2019-01-09T10:48:01.792Z,2.50
2019-01-09T10:50:30.175Z,2.58
2019-01-09T10:52:58.563Z,2.59
2019-01-09T10:55:27.249Z,2.69
2019-01-09T10:57:55.928Z,2.66
2019-01-09T11:00:26.074Z,2.70
2019-01-09T11:02:54.941Z,2.76
2019-01-09T11:05:23.470Z,3.08
2019-01-09T11:07:52.217Z,3.08
2019-01-09T11:10:21.275Z,3.07
2019-01-09T11:12:49.671Z,2.96
2019-01-09T11:15:18.059Z,2.82
2019-01-09T11:17:46.469Z,3.15
2019-01-09T11:20:17.904Z,3.07
2019-01-09T11:22:46.731Z,3.23
2019-01-09T11:25:20.683Z,3.20
2019-01-09T11:27:49.247Z,3.09
2019-01-09T11:30:18.893Z,2.99
2019-01-09T11:32:47.275Z,3.02
2019-01-09T11:35:18.720Z,2.72
2019-01-09T11:37:47.495Z,2.47
2019-01-09T11:40:18.168Z,2.39
2019-01-09T11:42:46.919Z,2.34
2019-01-09T11:45:17.452Z,2.26
2019-01-09T11:47:46.180Z,2.34
2019-01-09T11:50:15.917Z,2.29
2019-01-09T11:52:44.306Z,2.43
2019-01-09T11:55:14.150Z,2.61
2019-01-09T11:57:42.606Z,2.60
2019-01-09T12:00:20.030Z,2.74
2019-01-09T12:02:48.418Z,2.67
2019-01-09T12:05:17.206Z,2.75
2019-01-09T12:07:45.575Z,2.66
2019-01-09T12:10:16.799Z,2.79
2019-01-09T12:12:45.641Z,2.89
2019-01-09T12:15:15.160Z,3.03
2019-01-09T12:17:43.561Z,2.98
2019-01-09T12:20:14.686Z,2.88
2019-01-09T12:22:43.421Z,2.85
2019-01-09T12:25:12.703Z,2.99
2019-01-09T12:27:41.474Z,2.94
2019-01-09T12:30:18.937Z,3.18
2019-01-09T12:32:47.323Z,3.15
2019-01-09T12:35:15.733Z,3.28
2019-01-09T12:37:44.440Z,3.38
2019-01-09T12:40:12.964Z,3.42
2019-01-09T12:42:41.698Z,3.43
2019-01-09T12:45:12.825Z,3.41
2019-01-09T12:47:41.224Z,3.23
2019-01-09T12:50:14.223Z,3.22
2019-01-09T12:52:42.690Z,3.14
2019-01-09T12:55:11.225Z,3.02
2019-01-09T12:57:39.610Z,2.96
2019-01-09T13:00:11.063Z,2.91
2019-01-09T13:02:39.498Z,2.82
2019-01-09T13:05:08.278Z,2.65
2019-01-09T13:07:36.957Z,2.47
2019-01-09T13:10:08.480Z,2.31
2019-01-09T13:12:36.880Z,2.15
2019-01-09T13:15:08.075Z,1.97
2019-01-09T13:17:36.483Z,2.11
2019-01-09T13:20:10.967Z,2.26
2019-01-09T13:22:39.374Z,2.20
2019-01-09T13:25:09.007Z,2.23
2019-01-09T13:27:37.399Z,2.19
2019-01-09T13:30:13.245Z,2.38
2019-01-09T13:32:41.803Z,2.42
2019-01-09T13:35:10.320Z,2.34
2019-01-09T13:37:38.789Z,2.34
2019-01-09T13:40:10.225Z,1.90
2019-01-09T13:42:38.628Z,1.51
2019-01-09T13:45:09.852Z,1.57
2019-01-09T13:47:38.237Z,1.66
2019-01-09T13:50:09.689Z,1.70
2019-01-09T13:52:38.082Z,1.84
2019-01-09T13:55:08.417Z,1.94
2019-01-09T13:57:36.869Z,2.04
2019-01-09T14:00:08.374Z,2.13
2019-01-09T14:02:37.122Z,2.20
2019-01-09T14:05:08.227Z,2.16
2019-01-09T14:07:36.691Z,1.93
2019-01-09T14:10:08.130Z,2.01
2019-01-09T14:12:36.525Z,2.00
2019-01-09T14:15:08.132Z,2.07
2019-01-09T14:17:36.526Z,2.13
2019-01-09T14:20:08.355Z,2.20
2019-01-09T14:22:37.061Z,2.29
2019-01-09T14:25:07.983Z,2.39
2019-01-09T14:27:37.003Z,2.33
2019-01-09T14:30:14.809Z,2.64
2019-01-09T14:32:43.287Z,2.53
2019-01-09T14:35:11.813Z,2.54
2019-01-09T14:37:40.197Z,2.55
2019-01-09T14:40:16.627Z,2.43
2019-01-09T14:42:45.011Z,2.36
2019-01-09T14:45:15.043Z,2.38
2019-01-09T14:47:43.786Z,2.41
2019-01-09T14:50:20.665Z,2.46
2019-01-09T14:52:49.065Z,2.29
2019-01-09T14:55:17.892Z,2.29
2019-01-09T14:57:46.350Z,2.13
2019-01-09T15:00:24.210Z,2.14
2019-01-09T15:02:52.939Z,2.14
2019-01-09T15:05:21.627Z,2.11
2019-01-09T15:07:50.105Z,2.12
2019-01-09T15:10:23.806Z,2.02
2019-01-09T15:12:52.657Z,2.08
2019-01-09T15:15:21.449Z,1.98
2019-01-09T15:17:50.135Z,1.77
2019-01-09T15:20:20.708Z,1.64
2019-01-09T15:22:49.477Z,1.70
2019-01-09T15:25:18.760Z,1.65
2019-01-09T15:27:47.157Z,1.54
2019-01-09T15:30:24.186Z,1.48
2019-01-09T15:32:52.656Z,1.34
2019-01-09T15:35:21.707Z,1.32
2019-01-09T15:37:50.390Z,1.25
2019-01-09T15:40:24.060Z,1.15
2019-01-09T15:42:52.530Z,1.16
2019-01-09T15:45:21.043Z,1.12
2019-01-09T15:47:49.495Z,1.06
2019-01-09T15:50:20.868Z,1.12
2019-01-09T15:52:49.256Z,1.10
2019-01-09T15:55:18.650Z,0.96
2019-01-09T15:57:49.178Z,0.94
2019-01-09T16:00:23.226Z,0.97
2019-01-09T16:02:51.612Z,1.11
2019-01-09T16:05:20.001Z,1.16
2019-01-09T16:07:48.470Z,1.06
2019-01-09T16:10:19.798Z,1.15
2019-01-09T16:12:48.197Z,1.16
2019-01-09T16:15:18.217Z,1.12
2019-01-09T16:17:46.695Z,1.12
2019-01-09T16:20:17.699Z,1.15
2019-01-09T16:22:46.146Z,1.13
2019-01-09T16:25:15.597Z,1.10
2019-01-09T16:27:44.054Z,1.12
2019-01-09T16:30:34.612Z,1.12
2019-01-09T16:33:03.086Z,1.13
2019-01-09T16:35:34.093Z,1.08
2019-01-09T16:38:02.496Z,1.06
2019-01-09T16:40:30.884Z,1.06
2019-01-09T16:42:59.626Z,1.01
2019-01-09T16:45:28.413Z,1.00
2019-01-09T16:47:56.807Z,0.95
2019-01-09T16:50:26.232Z,1.04
2019-01-09T16:52:54.613Z,1.08
2019-01-09T16:55:23.289Z,1.04
2019-01-09T16:57:51.685Z,1.05
2019-01-09T17:00:32.552Z,1.04
2019-01-09T17:03:00.954Z,0.93
2019-01-09T17:05:29.881Z,0.96
2019-01-09T17:07:58.470Z,0.89
2019-01-09T17:10:32.246Z,0.99
2019-01-09T17:12:57.033Z,0.99
2019-01-09T17:15:25.438Z,0.97
2019-01-09T17:17:54.070Z,1.00
2019-01-09T17:20:27.938Z,0.99
2019-01-09T17:22:56.969Z,1.01
2019-01-09T17:25:25.358Z,1.07
2019-01-09T17:27:54.099Z,1.08
2019-01-09T17:30:29.944Z,0.95
2019-01-09T17:32:58.417Z,1.02
2019-01-09T17:35:26.878Z,0.99
2019-01-09T17:37:55.944Z,0.98
2019-01-09T17:40:25.427Z,0.99
2019-01-09T17:42:53.991Z,0.89
2019-01-09T17:45:22.782Z,0.92
2019-01-09T17:47:51.187Z,1.02
2019-01-09T17:50:25.114Z,1.01
2019-01-09T17:52:53.899Z,0.99
2019-01-09T17:55:22.530Z,0.93
2019-01-09T17:57:51.002Z,0.83
2019-01-09T18:00:22.231Z,0.93
2019-01-09T18:02:50.959Z,0.96
2019-01-09T18:05:19.362Z,0.97
2019-01-09T18:07:47.890Z,1.01
2019-01-09T18:10:19.096Z,0.98
2019-01-09T18:12:48.366Z,0.93
2019-01-09T18:15:19.311Z,0.93
2019-01-09T18:17:49.623Z,0.86
2019-01-09T18:20:20.460Z,0.85
2019-01-09T18:22:48.937Z,0.95
2019-01-09T18:25:19.779Z,0.82
2019-01-09T18:27:48.238Z,0.88
2019-01-09T18:30:27.161Z,0.79
2019-01-09T18:33:04.219Z,0.87
2019-01-09T18:35:41.866Z,0.88
2019-01-09T18:38:24.861Z,0.91
2019-01-09T18:41:17.404Z,0.98
2019-01-09T18:44:01.159Z,0.92
2019-01-09T18:47:05.841Z,0.91
2019-01-09T18:49:52.189Z,0.82
2019-01-09T18:52:35.426Z,0.87
2019-01-09T18:55:05.005Z,0.85
2019-01-09T18:57:33.437Z,0.75
2019-01-09T19:00:01.825Z,0.79
2019-01-09T19:02:30.299Z,0.78
2019-01-09T19:04:58.693Z,0.93
2019-01-09T19:07:27.104Z,0.91
2019-01-09T19:09:55.485Z,0.72
2019-01-09T19:12:23.890Z,0.78
2019-01-09T19:14:52.305Z,0.80
2019-01-09T19:17:20.687Z,0.80
2019-01-09T19:19:49.080Z,0.86
2019-01-09T19:22:17.484Z,0.86
2019-01-09T19:24:46.716Z,0.76
2019-01-09T19:27:15.109Z,0.76
2019-01-09T19:29:43.503Z,0.73
2019-01-09T19:32:11.969Z,0.68
2019-01-09T19:34:40.431Z,0.74
2019-01-09T19:37:09.179Z,0.70
2019-01-09T19:39:37.567Z,0.71
2019-01-09T19:42:06.034Z,0.76
2019-01-09T19:44:34.774Z,0.67
2019-01-09T19:47:03.182Z,0.74
2019-01-09T19:49:31.660Z,0.71
2019-01-09T19:52:00.118Z,0.70
2019-01-09T19:54:28.578Z,0.70
2019-01-09T19:56:57.050Z,0.72
2019-01-09T19:59:25.749Z,0.71
2019-01-09T20:01:54.226Z,0.75
2019-01-09T20:04:22.913Z,0.79
2019-01-09T20:06:51.303Z,0.68
2019-01-09T20:09:19.774Z,0.73
2019-01-09T20:11:48.164Z,0.72
2019-01-09T20:14:16.658Z,0.79
2019-01-09T20:16:45.046Z,0.75
2019-01-09T20:19:13.474Z,0.74
2019-01-09T20:21:42.244Z,0.73
2019-01-09T20:24:10.971Z,0.72
2019-01-09T20:26:40.192Z,0.78
2019-01-09T20:29:08.519Z,0.68
2019-01-09T20:31:36.992Z,0.68
2019-01-09T20:34:05.785Z,0.69
2019-01-09T20:36:34.266Z,0.68
2019-01-09T20:39:02.844Z,0.70
2019-01-09T20:41:35.523Z,0.68
2019-01-09T20:44:01.352Z,0.71
2019-01-09T20:46:29.747Z,0.71
2019-01-09T20:48:58.201Z,0.71
2019-01-09T20:51:26.596Z,0.75
2019-01-09T20:53:54.983Z,0.70
2019-01-09T20:56:23.467Z,0.78
2019-01-09T20:58:51.927Z,0.82
2019-01-09T21:01:20.683Z,0.76
2019-01-09T21:03:49.456Z,0.76
2019-01-09T21:06:17.991Z,0.82
2019-01-09T21:08:46.725Z,0.71
2019-01-09T21:11:15.096Z,0.78
2019-01-09T21:13:43.821Z,0.79
2019-01-09T21:16:12.677Z,0.87
2019-01-09T21:18:41.445Z,0.77
2019-01-09T21:21:09.829Z,0.77
2019-01-09T21:23:38.228Z,0.78
2019-01-09T21:26:06.756Z,0.78
2019-01-09T21:28:35.161Z,0.79
2019-01-09T21:31:04.052Z,0.74
2019-01-09T21:33:32.742Z,0.76
2019-01-09T21:36:01.214Z,0.84
2019-01-09T21:38:29.603Z,0.89
2019-01-09T21:40:57.991Z,0.82
2019-01-09T21:43:26.460Z,0.89
2019-01-09T21:45:54.844Z,0.86
2019-01-09T21:48:23.247Z,0.84
2019-01-09T21:50:51.701Z,0.91
2019-01-09T21:53:20.152Z,0.93
2019-01-09T21:55:48.868Z,0.86
2019-01-09T21:58:17.273Z,0.93
2019-01-09T22:00:46.141Z,0.87
2019-01-09T22:03:14.605Z,0.95
2019-01-09T22:05:43.013Z,0.95
2019-01-09T22:08:11.465Z,0.86
2019-01-09T22:10:40.264Z,0.89
2019-01-09T22:13:08.841Z,0.83
2019-01-09T22:15:37.302Z,0.80
2019-01-09T22:18:06.077Z,0.82
2019-01-09T22:20:34.734Z,0.88
2019-01-09T22:23:03.291Z,0.84
2019-01-09T22:25:31.984Z,0.84
2019-01-09T22:28:00.378Z,0.76
2019-01-09T22:30:29.114Z,0.73
2019-01-09T22:32:57.444Z,0.69
2019-01-09T22:35:26.304Z,0.60
2019-01-09T22:37:54.723Z,0.60
2019-01-09T22:40:23.344Z,0.44
2019-01-09T22:42:51.874Z,0.54
2019-01-09T22:45:20.820Z,0.50
2019-01-09T22:47:49.281Z,0.48
2019-01-09T22:50:22.315Z,0.48
2019-01-09T22:52:50.786Z,0.42
2019-01-09T22:55:19.481Z,0.48
2019-01-09T22:57:47.873Z,0.46
2019-01-09T23:00:32.438Z,0.51
2019-01-09T23:03:01.211Z,0.43
2019-01-09T23:05:29.662Z,0.41
2019-01-09T23:07:58.061Z,0.34
2019-01-09T23:10:26.749Z,0.34
2019-01-09T23:12:55.160Z,0.40
2019-01-09T23:15:23.918Z,0.38
2019-01-09T23:17:52.321Z,0.39
2019-01-09T23:20:20.795Z,0.45
2019-01-09T23:22:49.460Z,0.42
2019-01-09T23:25:18.255Z,0.39
2019-01-09T23:27:46.834Z,0.33
2019-01-09T23:30:15.298Z,0.29
2019-01-09T23:32:43.758Z,0.27
2019-01-09T23:35:15.305Z,0.41
2019-01-09T23:37:44.037Z,0.30
2019-01-09T23:40:15.065Z,0.33
2019-01-09T23:42:43.560Z,0.30
2019-01-09T23:45:14.498Z,0.24
2019-01-09T23:47:43.400Z,0.19
2019-01-09T23:50:12.726Z,0.23
2019-01-09T23:52:41.269Z,0.23
2019-01-09T23:55:11.424Z,0.17
2019-01-09T23:57:40.083Z,0.20
